createdAt,value
2018-06-24T00:01:03.530Z,58.10
2018-06-24T00:03:31.722Z,58.10
2018-06-24T00:05:59.906Z,58.00
2018-06-24T00:08:28.061Z,58.00
2018-06-24T00:10:56.244Z,58.00
2018-06-24T00:13:24.405Z,58.10
2018-06-24T00:15:52.584Z,58.10
2018-06-24T00:18:20.737Z,58.10
2018-06-24T00:20:48.917Z,58.10
2018-06-24T00:23:17.089Z,58.20
2018-06-24T00:25:45.257Z,58.30
2018-06-24T00:28:13.426Z,58.40
2018-06-24T00:30:41.617Z,58.40
2018-06-24T00:33:09.774Z,58.40
2018-06-24T00:35:38.025Z,58.50
2018-06-24T00:38:06.187Z,58.50
2018-06-24T00:40:34.362Z,58.60
2018-06-24T00:43:02.625Z,58.70
2018-06-24T00:45:30.802Z,58.80
2018-06-24T00:47:58.965Z,58.80
2018-06-24T00:50:27.146Z,58.90
2018-06-24T00:52:55.297Z,58.90
2018-06-24T00:55:23.470Z,58.90
2018-06-24T00:57:51.633Z,58.90
2018-06-24T01:00:19.791Z,58.90
2018-06-24T01:02:47.953Z,58.90
2018-06-24T01:05:16.185Z,59.00
2018-06-24T01:07:45.424Z,59.00
2018-06-24T01:10:13.576Z,59.10
2018-06-24T01:12:42.042Z,59.10
2018-06-24T01:15:10.283Z,59.20
2018-06-24T01:17:38.553Z,59.20
2018-06-24T01:20:06.777Z,59.20
2018-06-24T01:22:35.030Z,59.30
2018-06-24T01:25:03.226Z,59.40
2018-06-24T01:27:31.408Z,59.40
2018-06-24T01:32:27.522Z,59.80
2018-06-24T01:34:55.686Z,59.80
2018-06-24T01:37:23.864Z,60.80
2018-06-24T01:39:52.030Z,60.00
2018-06-24T01:42:20.198Z,60.20
2018-06-24T01:44:48.368Z,60.30
2018-06-24T01:47:16.546Z,60.40
2018-06-24T01:49:44.783Z,60.40
2018-06-24T01:52:12.962Z,60.50
2018-06-24T01:54:41.124Z,60.70
2018-06-24T01:57:09.281Z,60.70
2018-06-24T01:59:37.446Z,60.70
2018-06-24T02:02:05.626Z,60.90
2018-06-24T02:04:33.789Z,61.00
2018-06-24T02:07:01.962Z,61.00
2018-06-24T02:09:30.142Z,61.00
2018-06-24T02:11:58.296Z,61.10
2018-06-24T02:14:26.452Z,62.00
2018-06-24T02:16:54.630Z,61.20
2018-06-24T02:19:22.804Z,61.10
2018-06-24T02:21:50.970Z,61.10
2018-06-24T02:24:19.116Z,61.10
2018-06-24T02:26:47.293Z,61.10
2018-06-24T02:29:15.477Z,61.20
2018-06-24T02:31:43.698Z,61.00
2018-06-24T02:34:11.845Z,61.00
2018-06-24T02:36:40.014Z,60.80
2018-06-24T02:39:09.245Z,61.00
2018-06-24T02:41:37.400Z,61.10
2018-06-24T02:44:05.622Z,61.10
2018-06-24T02:46:33.776Z,61.10
2018-06-24T02:49:01.979Z,61.10
2018-06-24T02:51:30.158Z,61.20
2018-06-24T02:53:58.330Z,61.40
2018-06-24T02:56:26.473Z,61.50
2018-06-24T02:58:54.646Z,61.60
2018-06-24T03:01:22.825Z,61.70
2018-06-24T03:03:51.086Z,61.80
2018-06-24T03:08:47.186Z,61.80
2018-06-24T03:11:15.354Z,61.70
2018-06-24T03:13:43.553Z,61.70
2018-06-24T03:16:11.709Z,61.70
2018-06-24T03:18:39.878Z,61.80
2018-06-24T03:21:08.034Z,61.90
2018-06-24T03:23:36.209Z,61.90
2018-06-24T03:26:04.377Z,62.00
2018-06-24T03:28:32.547Z,62.10
2018-06-24T03:31:00.689Z,62.10
2018-06-24T03:33:28.869Z,62.20
2018-06-24T03:35:57.021Z,62.30
2018-06-24T03:38:25.198Z,62.20
2018-06-24T03:40:53.353Z,62.10
2018-06-24T03:43:21.513Z,62.00
2018-06-24T03:45:49.678Z,61.90
2018-06-24T03:48:17.826Z,61.80
2018-06-24T03:50:46.000Z,61.70
2018-06-24T03:53:14.160Z,61.70
2018-06-24T03:55:42.321Z,61.80
2018-06-24T03:58:10.539Z,62.00
2018-06-24T04:00:38.661Z,62.10
2018-06-24T04:03:07.035Z,62.10
2018-06-24T04:05:35.281Z,62.00
2018-06-24T04:08:03.478Z,62.00
2018-06-24T04:10:31.710Z,61.90
2018-06-24T04:12:59.885Z,61.80
2018-06-24T04:15:28.062Z,61.70
2018-06-24T04:17:56.229Z,61.70
2018-06-24T04:20:24.407Z,61.70
2018-06-24T04:22:52.583Z,61.80
2018-06-24T04:25:20.789Z,61.80
2018-06-24T04:27:49.029Z,61.80
2018-06-24T04:30:17.200Z,61.80
2018-06-24T04:32:45.373Z,61.80
2018-06-24T04:35:13.570Z,61.80
2018-06-24T04:37:41.736Z,61.90
2018-06-24T04:40:09.910Z,61.90
2018-06-24T04:42:38.073Z,61.90
2018-06-24T04:45:06.366Z,62.00
2018-06-24T04:47:34.570Z,62.10
2018-06-24T04:50:02.742Z,62.20
2018-06-24T04:52:30.931Z,62.40
2018-06-24T04:54:59.121Z,62.40
2018-06-24T04:57:27.318Z,63.40
2018-06-24T04:59:55.643Z,62.50
2018-06-24T05:02:23.885Z,62.50
2018-06-24T05:04:52.066Z,62.60
2018-06-24T05:07:20.271Z,62.60
2018-06-24T05:09:48.484Z,62.70
2018-06-24T05:12:16.710Z,62.80
2018-06-24T05:14:44.872Z,62.90
2018-06-24T05:17:13.059Z,62.80
2018-06-24T05:19:41.247Z,62.70
2018-06-24T05:22:09.438Z,62.60
2018-06-24T05:27:05.710Z,62.60
2018-06-24T05:29:33.862Z,62.50
2018-06-24T05:32:02.026Z,62.40
2018-06-24T05:34:30.211Z,62.40
2018-06-24T05:36:58.402Z,62.40
2018-06-24T05:39:26.896Z,62.40
2018-06-24T05:41:55.096Z,62.50
2018-06-24T05:44:23.255Z,62.50
2018-06-24T05:46:51.466Z,62.40
2018-06-24T05:49:19.675Z,62.50
2018-06-24T05:51:47.837Z,62.50
2018-06-24T05:54:15.995Z,62.50
2018-06-24T05:56:44.182Z,62.50
2018-06-24T05:59:12.358Z,62.40
2018-06-24T06:01:40.637Z,62.40
2018-06-24T06:04:08.777Z,62.40
2018-06-24T06:06:36.950Z,62.40
2018-06-24T06:09:08.442Z,62.30
2018-06-24T06:11:36.593Z,62.30
2018-06-24T06:14:04.772Z,62.40
2018-06-24T06:16:32.926Z,62.50
2018-06-24T06:19:01.317Z,62.40
2018-06-24T06:21:29.508Z,63.20
2018-06-24T06:23:57.670Z,64.40
2018-06-24T06:26:25.839Z,63.90
2018-06-24T06:28:54.002Z,63.30
2018-06-24T06:31:22.187Z,62.80
2018-06-24T06:33:50.341Z,62.80
2018-06-24T06:36:18.524Z,62.70
2018-06-24T06:38:46.735Z,62.60
2018-06-24T06:41:14.921Z,62.90
2018-06-24T06:43:43.100Z,62.50
2018-06-24T06:46:13.165Z,62.10
2018-06-24T06:48:41.374Z,62.20
2018-06-24T06:51:10.851Z,62.20
2018-06-24T06:53:39.031Z,62.10
2018-06-24T06:56:07.718Z,61.90
2018-06-24T06:58:36.001Z,61.80
2018-06-24T07:01:04.194Z,61.70
2018-06-24T07:03:32.510Z,61.60
2018-06-24T07:06:00.633Z,61.60
2018-06-24T07:08:28.826Z,62.50
2018-06-24T07:10:57.146Z,63.00
2018-06-24T07:15:53.350Z,62.20
2018-06-24T07:18:21.622Z,62.00
2018-06-24T07:20:49.806Z,61.80
2018-06-24T07:23:17.999Z,61.60
2018-06-24T07:25:46.180Z,61.40
2018-06-24T07:28:14.522Z,61.30
2018-06-24T07:30:42.772Z,61.20
2018-06-24T07:33:11.019Z,60.70
2018-06-24T07:35:39.315Z,60.60
2018-06-24T07:38:07.529Z,60.80
2018-06-24T07:40:35.785Z,61.10
2018-06-24T07:43:03.979Z,61.20
2018-06-24T07:45:32.163Z,61.10
2018-06-24T07:48:00.434Z,61.30
2018-06-24T07:50:28.662Z,62.10
2018-06-24T07:52:56.853Z,61.20
2018-06-24T07:55:25.275Z,61.00
2018-06-24T07:57:53.570Z,60.80
2018-06-24T08:00:21.817Z,60.80
2018-06-24T08:02:49.978Z,60.50
2018-06-24T08:05:18.191Z,60.40
2018-06-24T08:07:46.373Z,60.20
2018-06-24T08:10:14.549Z,60.20
2018-06-24T08:15:11.347Z,60.00
2018-06-24T08:17:39.559Z,60.10
2018-06-24T08:20:07.765Z,60.20
2018-06-24T08:22:35.967Z,60.00
2018-06-24T08:25:04.182Z,59.80
2018-06-24T08:27:32.374Z,59.80
2018-06-24T08:30:00.551Z,59.90
2018-06-24T08:32:28.713Z,60.00
2018-06-24T08:34:56.887Z,60.00
2018-06-24T08:37:25.079Z,59.70
2018-06-24T08:39:53.266Z,59.80
2018-06-24T08:42:21.474Z,60.00
2018-06-24T08:44:49.652Z,59.90
2018-06-24T08:47:17.861Z,59.60
2018-06-24T08:49:46.017Z,59.60
2018-06-24T08:52:14.226Z,59.50
2018-06-24T08:54:42.398Z,59.50
2018-06-24T08:57:10.610Z,59.40
2018-06-24T08:59:38.831Z,59.30
2018-06-24T09:02:07.090Z,59.20
2018-06-24T09:04:35.332Z,58.80
2018-06-24T09:07:03.518Z,59.20
2018-06-24T09:09:31.714Z,59.00
2018-06-24T09:11:59.957Z,58.80
2018-06-24T09:14:28.119Z,59.00
2018-06-24T09:16:56.337Z,58.90
2018-06-24T09:19:24.533Z,58.90
2018-06-24T09:21:52.681Z,58.90
2018-06-24T09:24:20.922Z,59.20
2018-06-24T09:26:49.186Z,59.00
2018-06-24T09:29:17.412Z,58.90
2018-06-24T09:31:45.617Z,58.70
2018-06-24T09:36:41.697Z,58.50
2018-06-24T09:39:11.290Z,58.50
2018-06-24T09:41:39.535Z,58.50
2018-06-24T09:44:07.842Z,58.50
2018-06-24T09:46:36.905Z,58.40
2018-06-24T09:49:05.156Z,58.20
2018-06-24T09:51:33.932Z,58.20
2018-06-24T09:54:02.268Z,58.40
2018-06-24T09:56:30.425Z,58.60
2018-06-24T09:58:58.624Z,58.60
2018-06-24T10:01:26.820Z,58.60
2018-06-24T10:03:55.147Z,58.40
2018-06-24T10:08:51.441Z,58.70
2018-06-24T10:11:19.781Z,58.70
2018-06-24T10:16:15.895Z,58.40
2018-06-24T10:18:44.082Z,58.40
2018-06-24T10:21:12.284Z,58.40
2018-06-24T10:23:40.496Z,58.50
2018-06-24T10:26:08.724Z,58.80
2018-06-24T10:28:36.957Z,58.70
2018-06-24T10:31:05.166Z,58.50
2018-06-24T10:36:01.367Z,58.70
2018-06-24T10:38:29.670Z,59.00
2018-06-24T10:40:58.015Z,59.40
2018-06-24T10:43:26.201Z,59.70
2018-06-24T10:45:54.471Z,59.90
2018-06-24T10:48:22.677Z,60.30
2018-06-24T10:50:50.908Z,60.70
2018-06-24T10:53:19.072Z,60.80
2018-06-24T10:55:47.282Z,61.10
2018-06-24T10:58:15.465Z,61.50
2018-06-24T11:00:43.697Z,62.00
2018-06-24T11:03:11.860Z,62.10
2018-06-24T11:05:40.009Z,62.30
2018-06-24T11:08:08.208Z,62.60
2018-06-24T11:10:36.401Z,62.70
2018-06-24T11:13:04.591Z,62.70
2018-06-24T11:15:32.763Z,62.70
2018-06-24T11:18:00.933Z,62.80
2018-06-24T11:20:29.961Z,63.10
2018-06-24T11:22:58.141Z,63.20
2018-06-24T11:25:26.353Z,63.40
2018-06-24T11:27:54.605Z,63.80
2018-06-24T11:30:22.846Z,64.10
2018-06-24T11:32:51.117Z,63.80
2018-06-24T11:35:19.470Z,63.40
2018-06-24T11:37:47.901Z,63.10
2018-06-24T11:40:16.210Z,62.90
2018-06-24T11:42:44.378Z,62.90
2018-06-24T11:45:12.805Z,62.90
2018-06-24T11:47:40.998Z,62.50
2018-06-24T11:50:09.159Z,62.20
2018-06-24T11:52:37.353Z,62.20
2018-06-24T11:55:05.598Z,62.10
2018-06-24T11:57:33.791Z,61.70
2018-06-24T12:00:01.958Z,61.60
2018-06-24T12:02:30.245Z,61.80
2018-06-24T12:04:58.384Z,61.80
2018-06-24T12:07:26.565Z,61.70
2018-06-24T12:09:54.848Z,61.60
2018-06-24T12:12:22.912Z,61.70
2018-06-24T12:14:51.083Z,62.00
2018-06-24T12:17:19.241Z,62.20
2018-06-24T12:19:47.434Z,62.10
2018-06-24T12:22:15.667Z,62.00
2018-06-24T12:24:43.843Z,61.80
2018-06-24T12:27:12.093Z,61.50
2018-06-24T12:29:40.305Z,61.50
2018-06-24T12:32:08.515Z,61.60
2018-06-24T12:34:36.677Z,61.50
2018-06-24T12:37:04.875Z,61.40
2018-06-24T12:39:33.095Z,61.40
2018-06-24T12:42:01.282Z,61.10
2018-06-24T12:44:29.516Z,60.90
2018-06-24T12:49:25.641Z,60.90
2018-06-24T12:51:53.854Z,61.10
2018-06-24T12:54:22.030Z,61.20
2018-06-24T12:56:50.244Z,61.10
2018-06-24T12:59:18.621Z,61.10
2018-06-24T13:01:46.613Z,61.10
2018-06-24T13:04:14.792Z,61.30
2018-06-24T13:09:10.998Z,61.40
2018-06-24T13:11:39.165Z,61.40
2018-06-24T13:14:07.360Z,61.20
2018-06-24T13:16:35.561Z,61.20
2018-06-24T13:19:03.833Z,61.10
2018-06-24T13:21:31.990Z,61.20
2018-06-24T13:24:00.322Z,61.10
2018-06-24T13:26:28.577Z,60.60
2018-06-24T13:28:56.785Z,60.80
2018-06-24T13:31:24.961Z,60.90
2018-06-24T13:33:53.150Z,61.10
2018-06-24T13:36:21.323Z,61.20
2018-06-24T13:38:49.493Z,61.10
2018-06-24T13:41:17.708Z,61.20
2018-06-24T13:43:45.893Z,61.20
2018-06-24T13:46:14.108Z,61.40
2018-06-24T13:48:42.303Z,61.60
2018-06-24T13:51:10.520Z,61.70
2018-06-24T13:53:38.694Z,61.80
2018-06-24T13:56:06.862Z,61.80
2018-06-24T13:58:35.068Z,61.80
2018-06-24T14:01:03.275Z,62.00
2018-06-24T14:03:31.457Z,62.30
2018-06-24T14:05:59.665Z,62.60
2018-06-24T14:08:27.843Z,62.70
2018-06-24T14:10:56.034Z,62.60
2018-06-24T14:13:24.214Z,62.60
2018-06-24T14:15:52.406Z,62.70
2018-06-24T14:18:20.743Z,62.90
2018-06-24T14:20:48.923Z,63.20
2018-06-24T14:23:17.224Z,63.40
2018-06-24T14:25:45.506Z,63.60
2018-06-24T14:28:13.870Z,63.80
2018-06-24T14:30:42.043Z,64.00
2018-06-24T14:33:10.202Z,64.20
2018-06-24T14:35:38.390Z,64.30
2018-06-24T14:38:06.542Z,64.50
2018-06-24T14:40:34.730Z,64.60
2018-06-24T14:43:02.896Z,65.00
2018-06-24T14:45:31.093Z,65.40
2018-06-24T14:47:59.233Z,65.70
2018-06-24T14:50:27.418Z,66.00
2018-06-24T14:52:55.573Z,66.10
2018-06-24T14:55:23.785Z,66.20
2018-06-24T14:57:51.966Z,66.00
2018-06-24T15:00:20.152Z,66.00
2018-06-24T15:02:48.333Z,66.00
2018-06-24T15:05:16.493Z,66.10
2018-06-24T15:07:44.666Z,66.90
2018-06-24T15:10:12.813Z,66.20
2018-06-24T15:12:40.989Z,66.30
2018-06-24T15:15:09.167Z,66.30
2018-06-24T15:17:37.328Z,66.30
2018-06-24T15:20:05.502Z,66.30
2018-06-24T15:22:33.668Z,66.20
2018-06-24T15:25:01.822Z,66.20
2018-06-24T15:27:30.022Z,66.30
2018-06-24T15:29:58.166Z,66.30
2018-06-24T15:32:26.350Z,66.20
2018-06-24T15:34:54.508Z,66.10
2018-06-24T15:37:22.686Z,66.00
2018-06-24T15:42:18.798Z,66.00
2018-06-24T15:44:46.957Z,65.80
2018-06-24T15:47:15.483Z,66.00
2018-06-24T15:49:43.947Z,66.00
2018-06-24T15:52:12.157Z,66.00
2018-06-24T15:54:40.320Z,66.80
2018-06-24T15:57:08.473Z,65.80
2018-06-24T15:59:36.630Z,65.70
2018-06-24T16:02:04.847Z,66.20
2018-06-24T16:04:32.975Z,65.70
2018-06-24T16:07:01.125Z,65.70
2018-06-24T16:09:29.302Z,65.70
2018-06-24T16:11:57.453Z,65.90
2018-06-24T16:14:25.638Z,65.90
2018-06-24T16:16:53.816Z,65.90
2018-06-24T16:19:22.042Z,66.00
2018-06-24T16:21:50.194Z,66.10
2018-06-24T16:24:18.363Z,66.70
2018-06-24T16:26:46.524Z,66.20
2018-06-24T16:29:14.689Z,66.30
2018-06-24T16:31:42.861Z,66.40
2018-06-24T16:34:11.016Z,66.40
2018-06-24T16:36:39.175Z,66.40
2018-06-24T16:39:08.859Z,66.40
2018-06-24T16:41:37.033Z,66.40
2018-06-24T16:44:05.235Z,66.40
2018-06-24T16:46:33.429Z,66.50
2018-06-24T16:49:01.667Z,66.70
2018-06-24T16:51:29.845Z,66.80
2018-06-24T16:53:58.039Z,67.10
2018-06-24T16:56:26.181Z,67.00
2018-06-24T16:58:54.413Z,67.00
2018-06-24T17:01:22.559Z,67.10
2018-06-24T17:03:50.773Z,67.20
2018-06-24T17:06:18.942Z,67.20
2018-06-24T17:08:47.213Z,67.40
2018-06-24T17:11:15.368Z,67.50
2018-06-24T17:13:43.547Z,67.80
2018-06-24T17:16:11.708Z,68.10
2018-06-24T17:18:39.871Z,68.30
2018-06-24T17:21:08.073Z,68.50
2018-06-24T17:23:36.230Z,68.70
2018-06-24T17:26:04.407Z,68.90
2018-06-24T17:28:32.581Z,69.30
2018-06-24T17:31:00.775Z,69.50
2018-06-24T17:33:28.943Z,69.70
2018-06-24T17:35:57.109Z,69.90
2018-06-24T17:38:25.286Z,70.10
2018-06-24T17:40:53.462Z,70.40
2018-06-24T17:43:21.618Z,70.30
2018-06-24T17:45:49.862Z,70.50
2018-06-24T17:48:17.973Z,70.90
2018-06-24T17:50:46.153Z,71.10
2018-06-24T17:53:14.337Z,71.20
2018-06-24T17:55:42.492Z,71.20
2018-06-24T17:58:10.681Z,71.40
2018-06-24T18:00:38.888Z,71.50
2018-06-24T18:03:07.109Z,71.50
2018-06-24T18:05:35.290Z,71.80
2018-06-24T18:08:03.496Z,71.80
2018-06-24T18:10:31.786Z,71.70
2018-06-24T18:12:59.982Z,71.80
2018-06-24T18:15:28.158Z,71.80
2018-06-24T18:17:56.331Z,71.80
2018-06-24T18:20:24.618Z,71.80
2018-06-24T18:22:52.809Z,71.70
2018-06-24T18:25:20.987Z,71.80
2018-06-24T18:27:49.215Z,71.70
2018-06-24T18:30:17.372Z,71.70
2018-06-24T18:32:48.272Z,71.70
2018-06-24T18:35:13.686Z,71.60
2018-06-24T18:37:41.878Z,71.50
2018-06-24T18:40:10.055Z,71.60
2018-06-24T18:42:38.238Z,71.60
2018-06-24T18:45:06.424Z,71.60
2018-06-24T18:47:34.583Z,71.50
2018-06-24T18:50:02.758Z,71.70
2018-06-24T18:52:30.945Z,71.70
2018-06-24T18:54:59.097Z,71.70
2018-06-24T18:57:27.261Z,71.70
2018-06-24T18:59:55.422Z,71.70
2018-06-24T19:02:23.685Z,71.80
2018-06-24T19:04:51.859Z,71.70
2018-06-24T19:07:20.022Z,71.80
2018-06-24T19:09:48.216Z,71.80
2018-06-24T19:14:44.282Z,71.90
2018-06-24T19:17:12.474Z,71.80
2018-06-24T19:19:40.629Z,71.90
2018-06-24T19:22:08.814Z,71.90
2018-06-24T19:24:37.005Z,72.00
2018-06-24T19:27:05.464Z,72.10
2018-06-24T19:29:33.633Z,72.30
2018-06-24T19:32:01.812Z,72.50
2018-06-24T19:34:29.997Z,73.50
2018-06-24T19:36:58.148Z,72.80
2018-06-24T19:39:26.643Z,73.80
2018-06-24T19:41:54.845Z,73.00
2018-06-24T19:44:23.020Z,73.20
2018-06-24T19:46:51.194Z,73.40
2018-06-24T19:49:19.405Z,73.50
2018-06-24T19:51:47.593Z,73.40
2018-06-24T19:54:15.762Z,73.40
2018-06-24T19:56:43.962Z,73.30
2018-06-24T19:59:12.101Z,73.20
2018-06-24T20:01:40.275Z,73.30
2018-06-24T20:04:08.436Z,73.40
2018-06-24T20:06:36.640Z,73.40
2018-06-24T20:09:07.294Z,73.40
2018-06-24T20:11:35.470Z,73.40
2018-06-24T20:14:03.629Z,73.50
2018-06-24T20:16:31.885Z,73.70
2018-06-24T20:19:00.012Z,73.50
2018-06-24T20:21:28.163Z,73.60
2018-06-24T20:23:56.333Z,73.70
2018-06-24T20:26:24.515Z,73.70
2018-06-24T20:28:52.690Z,73.80
2018-06-24T20:31:20.885Z,74.50
2018-06-24T20:33:49.106Z,73.90
2018-06-24T20:36:17.265Z,73.90
2018-06-24T20:38:45.431Z,73.90
2018-06-24T20:41:13.602Z,73.90
2018-06-24T20:43:41.753Z,73.90
2018-06-24T20:46:09.950Z,74.00
2018-06-24T20:48:38.393Z,73.90
2018-06-24T20:51:06.630Z,73.90
2018-06-24T20:53:34.793Z,74.00
2018-06-24T20:56:02.960Z,74.00
2018-06-24T20:58:31.136Z,74.10
2018-06-24T21:00:59.299Z,74.00
2018-06-24T21:03:27.494Z,74.00
2018-06-24T21:05:55.657Z,74.10
2018-06-24T21:08:23.857Z,74.10
2018-06-24T21:10:52.026Z,74.10
2018-06-24T21:13:20.203Z,74.10
2018-06-24T21:15:48.365Z,74.20
2018-06-24T21:18:16.567Z,74.20
2018-06-24T21:20:44.730Z,74.40
2018-06-24T21:23:12.905Z,74.40
2018-06-24T21:25:41.082Z,74.30
2018-06-24T21:28:09.260Z,74.20
2018-06-24T21:30:37.430Z,74.20
2018-06-24T21:33:05.906Z,74.10
2018-06-24T21:35:34.094Z,74.10
2018-06-24T21:38:02.246Z,74.10
2018-06-24T21:40:30.422Z,73.80
2018-06-24T21:42:58.581Z,73.80
2018-06-24T21:45:26.741Z,73.80
2018-06-24T21:47:54.904Z,73.80
2018-06-24T21:50:23.097Z,73.70
2018-06-24T21:52:51.287Z,73.70
2018-06-24T21:55:19.462Z,73.70
2018-06-24T21:57:47.633Z,73.70
2018-06-24T22:00:15.806Z,73.60
2018-06-24T22:02:43.981Z,73.50
2018-06-24T22:05:12.158Z,73.50
2018-06-24T22:07:40.346Z,73.50
2018-06-24T22:10:08.515Z,73.50
2018-06-24T22:12:36.686Z,73.60
2018-06-24T22:15:04.876Z,73.70
2018-06-24T22:17:33.025Z,73.80
2018-06-24T22:20:01.212Z,74.00
2018-06-24T22:22:29.437Z,74.10
2018-06-24T22:24:57.578Z,74.00
2018-06-24T22:29:53.693Z,74.00
2018-06-24T22:32:21.861Z,73.90
2018-06-24T22:34:50.054Z,73.90
2018-06-24T22:37:18.206Z,74.00
2018-06-24T22:39:46.357Z,74.00
2018-06-24T22:42:14.544Z,74.00
2018-06-24T22:44:42.691Z,74.10
2018-06-24T22:47:10.928Z,74.10
2018-06-24T22:49:39.101Z,74.00
2018-06-24T22:52:07.281Z,74.00
2018-06-24T22:54:35.510Z,74.10
2018-06-24T22:57:03.694Z,74.10
2018-06-24T22:59:43.270Z,73.90
2018-06-24T23:02:11.439Z,74.00
2018-06-24T23:04:39.586Z,74.10
2018-06-24T23:07:07.750Z,74.10
2018-06-24T23:09:35.922Z,74.20
2018-06-24T23:12:04.114Z,74.20
2018-06-24T23:14:32.293Z,74.20
2018-06-24T23:17:00.469Z,74.20
2018-06-24T23:19:28.633Z,74.20
2018-06-24T23:21:56.805Z,74.30
2018-06-24T23:24:24.969Z,74.30
2018-06-24T23:26:53.145Z,74.20
2018-06-24T23:29:21.318Z,74.20
2018-06-24T23:31:49.514Z,74.20
2018-06-24T23:34:17.674Z,74.10
2018-06-24T23:36:45.857Z,74.10
2018-06-24T23:39:14.021Z,74.10
2018-06-24T23:41:42.201Z,74.10
2018-06-24T23:44:10.378Z,74.00
2018-06-24T23:46:38.531Z,74.00
2018-06-24T23:49:06.732Z,74.00
2018-06-24T23:51:34.914Z,74.00
2018-06-24T23:54:03.094Z,73.60
2018-06-24T23:56:31.258Z,73.70
2018-06-24T23:58:59.505Z,73.60
